Terminal Aerodrome Forecast
Issued by NWS Upton, NY

Home | Current Version | Previous Version | Text Only | Print | Product List | Glossary On
Versions: 1 2 3 4 5 6 7 8 9 10 11 12 13 14 15 16 17 18 19 20 21 22 23 24 25 26
000
FTUS41 KOKX 231100
TAFJFK
TAF
KJFK 231132Z 2312/2418 22010KT P6SM SCT080 BKN100
     FM232000 19010KT P6SM SCT120 BKN200
     FM240400 15011G19KT P6SM BKN008
     FM240600 15017G27KT 2SM RA BR OVC005 WS020/16045KT
     FM240900 17020G32KT 2SM RA BR OVC004 WS020/18060KT
     FM241200 18019G29KT 3SM SHRA BR OVC008 WS020/20050KT
     FM241500 19017G26KT 6SM BR SCT009 BKN020=

USA.gov is the U.S. government's official web portal to all federal, state and local government web resources and services.